HISTORICAL SENSOR DATA

Sensor Data Report

DB LIVE
CURRENT TIME--:--:--
DEVICE NETWORK Gateway Status
13 ESP · realtime ~1s · history 60s
Weather WS-MOD-01
ONLINE
Actuator ACT-MOD-01
OFFLINE
Mainboard L3 MB-L3-01
ONLINE
Mainboard L5 MB-L5-01
ONLINE
Remote AC AC-REMOTE-01
ONLINE
PZEM L3-01 PWR-L3-01
OFFLINE
PZEM L3-02 PWR-L3-02
OFFLINE
PZEM L3-03 PWR-L3-03
OFFLINE
PZEM L3-04 PWR-L3-04
OFFLINE
PZEM L5-01 PWR-L5-01
ONLINE
PZEM L5-02 PWR-L5-02
ONLINE
PZEM L5-03 PWR-L5-03
OFFLINE
PZEM L5-04 PWR-L5-04
OFFLINE
REPORT FILTER

Periode & Sensor

DATABASE HISTORY
RESET
QUICK RANGE Hari ini 7 hari 30 hari
PERIODE01 Sep 2026sampai 07 Sep 2026
TOTAL DATA74,359sensor readings
MINIMUM-0.50sesuai filter
AVERAGE80.45sesuai filter
MAXIMUM32,564.20sesuai filter
REPORT RESULT

Data Sensor

01/09/2026 — 07/09/2026 EXPORT CSV
NOTANGGALWAKTUDEVICECHANNELSENSORVALUEUNIT
101 07/09/2026 01:35:00 AC-REMOTE-01Remote AC AC-SETPOINT AC Set Temperature 23.00 °C
102 07/09/2026 01:35:00 WS-MOD-01Weather Station Module WS-TEMP Suhu Udara 19.20 °C
103 07/09/2026 01:35:00 MB-L5-01Mainboard Lantai 5 L5-AI-03 Analog Input 3 3.05 V
104 07/09/2026 01:35:00 AC-REMOTE-01Remote AC AC-MODE AC Operating Mode 1.00 code
105 07/09/2026 01:35:00 MB-L5-01Mainboard Lantai 5 L5-LUX-06 Illuminance / LUX 6 0.10 lux
106 07/09/2026 01:35:00 MB-L5-01Mainboard Lantai 5 L5-LUX-04 Illuminance / LUX 4 0.10 lux
107 07/09/2026 01:35:00 AC-REMOTE-01Remote AC AC-FAN AC Fan Speed 0.00 code
108 07/09/2026 01:35:00 MB-L3-01Mainboard Lantai 3 L3-LUX-04 Illuminance / LUX 4 0.10 lux
109 07/09/2026 01:35:00 MB-L3-01Mainboard Lantai 3 L3-SHT-03-T SHT20 3 Temperature 28.70 °C
110 07/09/2026 01:35:00 MB-L3-01Mainboard Lantai 3 L3-RAD-01 Radiation 1 1.00 W/m²
111 07/09/2026 01:35:00 WS-MOD-01Weather Station Module WS-WIND Kecepatan Angin 6.84 m/s
112 07/09/2026 01:35:00 PWR-L5-02Power Meter L5 PZEM 02 PZEM-L5-02-POWER PZEM L5-02 Active Power 0.00 W
113 07/09/2026 01:35:00 PWR-L5-01Power Meter L5 PZEM 01 PZEM-L5-01-POWER PZEM L5-01 Active Power 10.60 W
114 07/09/2026 01:35:00 PWR-L5-02Power Meter L5 PZEM 02 PZEM-L5-02-CURR PZEM L5-02 Current 0.00 A
115 07/09/2026 01:35:00 MB-L5-01Mainboard Lantai 5 L5-ST-01 Surface Temperature 1 24.00 °C
116 07/09/2026 01:35:00 PWR-L5-02Power Meter L5 PZEM 02 PZEM-L5-02-VOLT PZEM L5-02 Voltage 225.90 V
117 07/09/2026 01:35:00 MB-L5-01Mainboard Lantai 5 L5-AI-05 Analog Input 5 3.05 V
118 07/09/2026 01:35:00 MB-L5-01Mainboard Lantai 5 L5-BGT-01 Black Globe Temperature 1 26.50 °C
119 07/09/2026 01:35:00 MB-L3-01Mainboard Lantai 3 L3-AI-04 Analog Input 4 3.12 V
120 07/09/2026 01:35:00 MB-L3-01Mainboard Lantai 3 L3-LUX-06 Illuminance / LUX 6 0.30 lux
121 07/09/2026 01:35:00 MB-L5-01Mainboard Lantai 5 L5-SHT-02-T SHT20 2 Temperature 28.70 °C
122 07/09/2026 01:35:00 PWR-L5-01Power Meter L5 PZEM 01 PZEM-L5-01-PF PZEM L5-01 Power Factor 0.38
123 07/09/2026 01:35:00 MB-L3-01Mainboard Lantai 3 L3-LUX-02 Illuminance / LUX 2 0.20 lux
124 07/09/2026 01:35:00 MB-L5-01Mainboard Lantai 5 L5-HFT-01 Heat Flow Temperature 1 23.80 °C
125 07/09/2026 01:35:00 MB-L3-01Mainboard Lantai 3 L3-LUX-05 Illuminance / LUX 5 0.30 lux
126 07/09/2026 01:35:00 MB-L3-01Mainboard Lantai 3 L3-LUX-03 Illuminance / LUX 3 0.20 lux
127 07/09/2026 01:35:00 MB-L3-01Mainboard Lantai 3 L3-SHT-01-RH SHT20 1 Humidity 46.30 %RH
128 07/09/2026 01:35:00 MB-L3-01Mainboard Lantai 3 L3-SHT-02-RH SHT20 2 Humidity 45.50 %RH
129 07/09/2026 01:35:00 MB-L3-01Mainboard Lantai 3 L3-AI-01 Analog Input 1 3.12 V
130 07/09/2026 01:35:00 PWR-L5-01Power Meter L5 PZEM 01 PZEM-L5-01-VOLT PZEM L5-01 Voltage 226.10 V
131 07/09/2026 01:35:00 MB-L5-01Mainboard Lantai 5 L5-RAD-01 Radiation 1 1.00 W/m²
132 07/09/2026 01:35:00 MB-L5-01Mainboard Lantai 5 L5-BGT-03 Black Globe Temperature 3 26.30 °C
133 07/09/2026 01:35:00 MB-L3-01Mainboard Lantai 3 L3-SHT-01-T SHT20 1 Temperature 28.40 °C
134 07/09/2026 01:35:00 MB-L5-01Mainboard Lantai 5 L5-AI-02 Analog Input 2 3.05 V
135 07/09/2026 01:34:00 MB-L5-01Mainboard Lantai 5 L5-LUX-01 Illuminance / LUX 1 0.00 lux
136 07/09/2026 01:34:00 WS-MOD-01Weather Station Module WS-DIR Arah Angin 66.50 °
137 07/09/2026 01:34:00 MB-L5-01Mainboard Lantai 5 L5-SHT-03-T SHT20 3 Temperature 28.60 °C
138 07/09/2026 01:34:00 MB-L3-01Mainboard Lantai 3 L3-LUX-01 Illuminance / LUX 1 0.20 lux
139 07/09/2026 01:34:00 PWR-L5-01Power Meter L5 PZEM 01 PZEM-L5-01-CURR PZEM L5-01 Current 0.12 A
140 07/09/2026 01:34:00 MB-L3-01Mainboard Lantai 3 L3-SHT-03-RH SHT20 3 Humidity 45.70 %RH
141 07/09/2026 01:34:00 MB-L5-01Mainboard Lantai 5 L5-AI-06 Analog Input 6 3.05 V
142 07/09/2026 01:34:00 MB-L3-01Mainboard Lantai 3 L3-RAD-02 Radiation 2 0.00 W/m²
143 07/09/2026 01:34:00 MB-L5-01Mainboard Lantai 5 L5-BGT-02 Black Globe Temperature 2 26.50 °C
144 07/09/2026 01:34:00 MB-L5-01Mainboard Lantai 5 L5-AI-01 Analog Input 1 3.05 V
145 07/09/2026 01:34:00 MB-L5-01Mainboard Lantai 5 L5-SHT-01-T SHT20 1 Temperature 28.40 °C
146 07/09/2026 01:34:00 MB-L5-01Mainboard Lantai 5 L5-HFT-02 Heat Flow Temperature 2 23.00 °C
147 07/09/2026 01:34:00 MB-L3-01Mainboard Lantai 3 L3-SHT-02-T SHT20 2 Temperature 28.60 °C
148 07/09/2026 01:34:00 MB-L3-01Mainboard Lantai 3 L3-AI-05 Analog Input 5 3.12 V
149 07/09/2026 01:34:00 WS-MOD-01Weather Station Module WS-PRES Tekanan Udara 910.00 hPa
150 07/09/2026 01:34:00 PWR-L5-01Power Meter L5 PZEM 01 PZEM-L5-01-FREQ PZEM L5-01 Frequency 49.90 Hz
151 07/09/2026 01:34:00 PWR-L5-02Power Meter L5 PZEM 02 PZEM-L5-02-PF PZEM L5-02 Power Factor 0.00
152 07/09/2026 01:34:00 MB-L5-01Mainboard Lantai 5 L5-SHT-01-RH SHT20 1 Humidity 46.60 %RH
153 07/09/2026 01:34:00 MB-L5-01Mainboard Lantai 5 L5-SHT-03-RH SHT20 3 Humidity 46.20 %RH
154 07/09/2026 01:34:00 WS-MOD-01Weather Station Module WS-RH Kelembapan Udara 79.40 %RH
155 07/09/2026 01:34:00 PWR-L5-02Power Meter L5 PZEM 02 PZEM-L5-02-FREQ PZEM L5-02 Frequency 49.90 Hz
156 07/09/2026 01:34:00 MB-L3-01Mainboard Lantai 3 L3-AI-02 Analog Input 2 3.12 V
157 07/09/2026 01:34:00 AC-REMOTE-01Remote AC AC-POWER AC Power State 1.00 state
158 07/09/2026 01:34:00 PWR-L5-02Power Meter L5 PZEM 02 PZEM-L5-02-ENERGY PZEM L5-02 Energy 0.04 kWh
159 07/09/2026 01:34:00 AC-REMOTE-01Remote AC AC-SETPOINT AC Set Temperature 23.00 °C
160 07/09/2026 01:34:00 WS-MOD-01Weather Station Module WS-TEMP Suhu Udara 19.10 °C
161 07/09/2026 01:34:00 MB-L5-01Mainboard Lantai 5 L5-AI-03 Analog Input 3 3.05 V
162 07/09/2026 01:34:00 AC-REMOTE-01Remote AC AC-MODE AC Operating Mode 1.00 code
163 07/09/2026 01:34:00 MB-L5-01Mainboard Lantai 5 L5-LUX-06 Illuminance / LUX 6 0.10 lux
164 07/09/2026 01:34:00 MB-L5-01Mainboard Lantai 5 L5-LUX-04 Illuminance / LUX 4 0.10 lux
165 07/09/2026 01:34:00 AC-REMOTE-01Remote AC AC-FAN AC Fan Speed 0.00 code
166 07/09/2026 01:34:00 MB-L3-01Mainboard Lantai 3 L3-LUX-04 Illuminance / LUX 4 0.10 lux
167 07/09/2026 01:34:00 MB-L3-01Mainboard Lantai 3 L3-SHT-03-T SHT20 3 Temperature 28.70 °C
168 07/09/2026 01:34:00 MB-L3-01Mainboard Lantai 3 L3-RAD-01 Radiation 1 1.00 W/m²
169 07/09/2026 01:34:00 WS-MOD-01Weather Station Module WS-WIND Kecepatan Angin 4.61 m/s
170 07/09/2026 01:34:00 PWR-L5-02Power Meter L5 PZEM 02 PZEM-L5-02-POWER PZEM L5-02 Active Power 0.00 W
171 07/09/2026 01:34:00 PWR-L5-01Power Meter L5 PZEM 01 PZEM-L5-01-POWER PZEM L5-01 Active Power 10.40 W
172 07/09/2026 01:34:00 PWR-L5-02Power Meter L5 PZEM 02 PZEM-L5-02-CURR PZEM L5-02 Current 0.00 A
173 07/09/2026 01:34:00 MB-L5-01Mainboard Lantai 5 L5-ST-01 Surface Temperature 1 24.00 °C
174 07/09/2026 01:34:00 PWR-L5-02Power Meter L5 PZEM 02 PZEM-L5-02-VOLT PZEM L5-02 Voltage 225.90 V
175 07/09/2026 01:34:00 MB-L5-01Mainboard Lantai 5 L5-AI-05 Analog Input 5 3.05 V
176 07/09/2026 01:34:00 MB-L5-01Mainboard Lantai 5 L5-BGT-01 Black Globe Temperature 1 26.60 °C
177 07/09/2026 01:34:00 MB-L3-01Mainboard Lantai 3 L3-AI-04 Analog Input 4 3.12 V
178 07/09/2026 01:34:00 MB-L3-01Mainboard Lantai 3 L3-LUX-06 Illuminance / LUX 6 0.30 lux
179 07/09/2026 01:34:00 MB-L5-01Mainboard Lantai 5 L5-SHT-02-T SHT20 2 Temperature 28.80 °C
180 07/09/2026 01:34:00 PWR-L5-01Power Meter L5 PZEM 01 PZEM-L5-01-PF PZEM L5-01 Power Factor 0.38
181 07/09/2026 01:34:00 MB-L3-01Mainboard Lantai 3 L3-LUX-02 Illuminance / LUX 2 0.20 lux
182 07/09/2026 01:34:00 MB-L5-01Mainboard Lantai 5 L5-HFT-01 Heat Flow Temperature 1 23.80 °C
183 07/09/2026 01:34:00 MB-L3-01Mainboard Lantai 3 L3-LUX-05 Illuminance / LUX 5 0.30 lux
184 07/09/2026 01:34:00 MB-L3-01Mainboard Lantai 3 L3-LUX-03 Illuminance / LUX 3 0.20 lux
185 07/09/2026 01:34:00 MB-L3-01Mainboard Lantai 3 L3-SHT-01-RH SHT20 1 Humidity 46.30 %RH
186 07/09/2026 01:34:00 MB-L3-01Mainboard Lantai 3 L3-SHT-02-RH SHT20 2 Humidity 45.50 %RH
187 07/09/2026 01:34:00 MB-L3-01Mainboard Lantai 3 L3-AI-01 Analog Input 1 3.12 V
188 07/09/2026 01:34:00 PWR-L5-01Power Meter L5 PZEM 01 PZEM-L5-01-VOLT PZEM L5-01 Voltage 226.00 V
189 07/09/2026 01:34:00 MB-L5-01Mainboard Lantai 5 L5-RAD-01 Radiation 1 1.00 W/m²
190 07/09/2026 01:34:00 MB-L5-01Mainboard Lantai 5 L5-BGT-03 Black Globe Temperature 3 26.30 °C
191 07/09/2026 01:34:00 MB-L3-01Mainboard Lantai 3 L3-SHT-01-T SHT20 1 Temperature 28.40 °C
192 07/09/2026 01:34:00 MB-L5-01Mainboard Lantai 5 L5-AI-02 Analog Input 2 3.05 V
193 07/09/2026 01:34:00 MB-L3-01Mainboard Lantai 3 L3-AI-06 Analog Input 6 3.12 V
194 07/09/2026 01:34:00 PWR-L5-01Power Meter L5 PZEM 01 PZEM-L5-01-ENERGY PZEM L5-01 Energy 0.08 kWh
195 07/09/2026 01:34:00 MB-L5-01Mainboard Lantai 5 L5-SHT-02-RH SHT20 2 Humidity 45.80 %RH
196 07/09/2026 01:34:00 MB-L5-01Mainboard Lantai 5 L5-RAD-02 Radiation 2 1.00 W/m²
197 07/09/2026 01:34:00 MB-L5-01Mainboard Lantai 5 L5-LUX-03 Illuminance / LUX 3 0.20 lux
198 07/09/2026 01:34:00 MB-L3-01Mainboard Lantai 3 L3-AI-03 Analog Input 3 3.12 V
199 07/09/2026 01:34:00 MB-L5-01Mainboard Lantai 5 L5-AI-04 Analog Input 4 3.05 V
200 07/09/2026 01:34:00 MB-L5-01Mainboard Lantai 5 L5-LUX-02 Illuminance / LUX 2 0.10 lux
Menampilkan maksimal 100 data per halaman